sensor_id;sensor_type;location;lat;lon;timestamp;P1;durP1;ratioP1;P2;durP2;ratioP2
30515;SDS011;17297;54.022;10.760;2022-11-18T00:00:48;22.63;;;12.98;;
30515;SDS011;17297;54.022;10.760;2022-11-18T00:03:14;23.02;;;14.05;;
30515;SDS011;17297;54.022;10.760;2022-11-18T00:05:39;18.98;;;12.00;;
30515;SDS011;17297;54.022;10.760;2022-11-18T00:08:05;17.70;;;10.80;;
30515;SDS011;17297;54.022;10.760;2022-11-18T00:10:30;18.00;;;11.95;;
30515;SDS011;17297;54.022;10.760;2022-11-18T00:12:56;21.15;;;12.93;;
30515;SDS011;17297;54.022;10.760;2022-11-18T00:15:40;25.98;;;13.15;;
30515;SDS011;17297;54.022;10.760;2022-11-18T00:18:06;22.40;;;12.73;;
30515;SDS011;17297;54.022;10.760;2022-11-18T00:20:32;22.77;;;14.57;;
30515;SDS011;17297;54.022;10.760;2022-11-18T00:22:58;29.52;;;14.00;;
30515;SDS011;17297;54.022;10.760;2022-11-18T00:25:23;23.30;;;13.52;;
30515;SDS011;17297;54.022;10.760;2022-11-18T00:27:49;19.48;;;12.07;;
30515;SDS011;17297;54.022;10.760;2022-11-18T00:30:14;24.13;;;13.85;;
30515;SDS011;17297;54.022;10.760;2022-11-18T00:32:40;25.38;;;15.60;;
30515;SDS011;17297;54.022;10.760;2022-11-18T00:35:05;31.08;;;14.88;;
30515;SDS011;17297;54.022;10.760;2022-11-18T00:37:32;21.95;;;14.27;;
30515;SDS011;17297;54.022;10.760;2022-11-18T00:39:57;21.63;;;13.05;;
30515;SDS011;17297;54.022;10.760;2022-11-18T00:42:22;23.42;;;15.02;;
30515;SDS011;17297;54.022;10.760;2022-11-18T00:45:06;27.67;;;15.13;;
30515;SDS011;17297;54.022;10.760;2022-11-18T00:47:32;25.67;;;14.95;;
30515;SDS011;17297;54.022;10.760;2022-11-18T00:49:57;24.58;;;16.55;;
30515;SDS011;17297;54.022;10.760;2022-11-18T00:52:23;23.70;;;14.13;;
30515;SDS011;17297;54.022;10.760;2022-11-18T00:54:48;23.73;;;14.60;;
30515;SDS011;17297;54.022;10.760;2022-11-18T00:57:13;23.92;;;15.88;;
30515;SDS011;17297;54.022;10.760;2022-11-18T00:59:39;23.35;;;14.52;;
30515;SDS011;17297;54.022;10.760;2022-11-18T01:02:04;26.30;;;16.00;;
30515;SDS011;17297;54.022;10.760;2022-11-18T01:04:29;22.15;;;14.95;;
30515;SDS011;17297;54.022;10.760;2022-11-18T01:06:55;23.45;;;14.90;;
30515;SDS011;17297;54.022;10.760;2022-11-18T01:09:20;22.63;;;14.52;;
30515;SDS011;17297;54.022;10.760;2022-11-18T01:11:45;26.98;;;15.35;;
30515;SDS011;17297;54.022;10.760;2022-11-18T01:14:29;23.20;;;14.77;;
30515;SDS011;17297;54.022;10.760;2022-11-18T01:16:55;33.33;;;18.10;;
30515;SDS011;17297;54.022;10.760;2022-11-18T01:19:21;25.73;;;15.02;;
30515;SDS011;17297;54.022;10.760;2022-11-18T01:21:47;24.70;;;15.73;;
30515;SDS011;17297;54.022;10.760;2022-11-18T01:24:13;24.63;;;15.30;;
30515;SDS011;17297;54.022;10.760;2022-11-18T01:26:39;28.23;;;16.13;;
30515;SDS011;17297;54.022;10.760;2022-11-18T01:29:04;28.38;;;15.15;;
30515;SDS011;17297;54.022;10.760;2022-11-18T01:31:30;27.00;;;17.15;;
30515;SDS011;17297;54.022;10.760;2022-11-18T01:33:55;26.48;;;15.95;;
30515;SDS011;17297;54.022;10.760;2022-11-18T01:36:21;24.45;;;17.30;;
30515;SDS011;17297;54.022;10.760;2022-11-18T01:38:48;26.58;;;14.73;;
30515;SDS011;17297;54.022;10.760;2022-11-18T01:41:14;36.67;;;18.73;;
30515;SDS011;17297;54.022;10.760;2022-11-18T01:46:17;33.75;;;17.88;;
30515;SDS011;17297;54.022;10.760;2022-11-18T01:48:42;24.70;;;14.02;;
30515;SDS011;17297;54.022;10.760;2022-11-18T01:51:12;31.15;;;15.57;;
30515;SDS011;17297;54.022;10.760;2022-11-18T01:53:42;23.83;;;15.43;;
30515;SDS011;17297;54.022;10.760;2022-11-18T01:56:21;20.98;;;14.02;;
30515;SDS011;17297;54.022;10.760;2022-11-18T01:58:55;21.00;;;13.73;;
30515;SDS011;17297;54.022;10.760;2022-11-18T02:01:23;20.60;;;13.43;;
30515;SDS011;17297;54.022;10.760;2022-11-18T02:03:49;21.83;;;13.77;;
30515;SDS011;17297;54.022;10.760;2022-11-18T02:06:15;24.38;;;14.45;;
30515;SDS011;17297;54.022;10.760;2022-11-18T02:08:41;20.77;;;14.70;;
30515;SDS011;17297;54.022;10.760;2022-11-18T02:11:11;26.17;;;16.10;;
30515;SDS011;17297;54.022;10.760;2022-11-18T02:13:58;19.52;;;13.07;;
30515;SDS011;17297;54.022;10.760;2022-11-18T02:16:34;22.40;;;14.43;;
30515;SDS011;17297;54.022;10.760;2022-11-18T02:28:03;35.60;;;20.23;;
30515;SDS011;17297;54.022;10.760;2022-11-18T02:30:33;31.98;;;18.88;;
30515;SDS011;17297;54.022;10.760;2022-11-18T02:33:46;35.45;;;18.55;;
30515;SDS011;17297;54.022;10.760;2022-11-18T02:36:02;36.97;;;20.90;;
30515;SDS011;17297;54.022;10.760;2022-11-18T02:38:34;37.25;;;19.15;;
30515;SDS011;17297;54.022;10.760;2022-11-18T02:41:07;35.83;;;19.73;;
30515;SDS011;17297;54.022;10.760;2022-11-18T02:43:36;37.95;;;21.83;;
30515;SDS011;17297;54.022;10.760;2022-11-18T02:46:07;41.60;;;22.35;;
30515;SDS011;17297;54.022;10.760;2022-11-18T02:48:36;41.55;;;23.08;;
30515;SDS011;17297;54.022;10.760;2022-11-18T02:51:07;38.55;;;20.20;;
30515;SDS011;17297;54.022;10.760;2022-11-18T02:53:35;35.13;;;18.70;;
30515;SDS011;17297;54.022;10.760;2022-11-18T02:56:04;36.85;;;20.52;;
30515;SDS011;17297;54.022;10.760;2022-11-18T02:58:31;46.63;;;23.83;;
30515;SDS011;17297;54.022;10.760;2022-11-18T03:01:00;34.38;;;18.27;;
30515;SDS011;17297;54.022;10.760;2022-11-18T03:03:26;38.00;;;18.92;;
30515;SDS011;17297;54.022;10.760;2022-11-18T03:11:35;39.58;;;18.92;;
30515;SDS011;17297;54.022;10.760;2022-11-18T03:14:14;38.63;;;19.35;;
30515;SDS011;17297;54.022;10.760;2022-11-18T03:16:44;40.25;;;18.02;;
30515;SDS011;17297;54.022;10.760;2022-11-18T03:19:27;35.42;;;17.52;;
30515;SDS011;17297;54.022;10.760;2022-11-18T03:22:07;37.47;;;18.45;;
30515;SDS011;17297;54.022;10.760;2022-11-18T03:24:35;31.15;;;16.38;;
30515;SDS011;17297;54.022;10.760;2022-11-18T03:27:09;33.00;;;15.43;;
30515;SDS011;17297;54.022;10.760;2022-11-18T03:29:41;29.40;;;16.17;;
30515;SDS011;17297;54.022;10.760;2022-11-18T03:32:13;31.50;;;17.95;;
30515;SDS011;17297;54.022;10.760;2022-11-18T03:34:45;40.28;;;17.77;;
30515;SDS011;17297;54.022;10.760;2022-11-18T03:37:14;34.03;;;16.80;;
30515;SDS011;17297;54.022;10.760;2022-11-18T03:39:43;31.35;;;16.63;;
30515;SDS011;17297;54.022;10.760;2022-11-18T03:42:15;25.60;;;15.73;;
30515;SDS011;17297;54.022;10.760;2022-11-18T03:44:49;26.85;;;17.05;;
30515;SDS011;17297;54.022;10.760;2022-11-18T03:47:24;27.73;;;16.45;;
30515;SDS011;17297;54.022;10.760;2022-11-18T03:49:57;29.98;;;16.25;;
30515;SDS011;17297;54.022;10.760;2022-11-18T03:52:29;32.05;;;18.20;;
30515;SDS011;17297;54.022;10.760;2022-11-18T03:54:57;31.20;;;17.38;;
30515;SDS011;17297;54.022;10.760;2022-11-18T03:57:33;37.53;;;19.02;;
30515;SDS011;17297;54.022;10.760;2022-11-18T04:00:08;34.25;;;17.33;;
30515;SDS011;17297;54.022;10.760;2022-11-18T04:02:35;36.38;;;18.10;;
30515;SDS011;17297;54.022;10.760;2022-11-18T04:05:02;41.33;;;19.73;;
30515;SDS011;17297;54.022;10.760;2022-11-18T04:12:44;37.17;;;19.08;;
30515;SDS011;17297;54.022;10.760;2022-11-18T04:15:15;40.88;;;19.42;;
30515;SDS011;17297;54.022;10.760;2022-11-18T04:17:40;33.40;;;16.20;;
30515;SDS011;17297;54.022;10.760;2022-11-18T04:20:11;33.28;;;16.13;;
30515;SDS011;17297;54.022;10.760;2022-11-18T04:22:40;28.58;;;15.07;;
30515;SDS011;17297;54.022;10.760;2022-11-18T04:25:05;31.42;;;15.95;;
30515;SDS011;17297;54.022;10.760;2022-11-18T04:27:31;25.33;;;14.57;;
30515;SDS011;17297;54.022;10.760;2022-11-18T04:29:56;30.73;;;18.15;;
30515;SDS011;17297;54.022;10.760;2022-11-18T04:32:21;31.40;;;16.08;;
30515;SDS011;17297;54.022;10.760;2022-11-18T04:34:47;30.55;;;14.73;;
30515;SDS011;17297;54.022;10.760;2022-11-18T04:37:12;27.23;;;15.93;;
30515;SDS011;17297;54.022;10.760;2022-11-18T04:39:37;27.65;;;15.77;;
30515;SDS011;17297;54.022;10.760;2022-11-18T04:42:03;23.67;;;16.17;;
30515;SDS011;17297;54.022;10.760;2022-11-18T04:44:29;29.55;;;15.13;;
30515;SDS011;17297;54.022;10.760;2022-11-18T04:46:58;29.38;;;16.92;;
30515;SDS011;17297;54.022;10.760;2022-11-18T04:49:26;29.95;;;17.00;;
30515;SDS011;17297;54.022;10.760;2022-11-18T04:51:52;33.13;;;17.02;;
30515;SDS011;17297;54.022;10.760;2022-11-18T04:54:18;29.45;;;14.90;;
30515;SDS011;17297;54.022;10.760;2022-11-18T04:56:44;30.25;;;16.98;;
30515;SDS011;17297;54.022;10.760;2022-11-18T04:59:10;31.27;;;16.88;;
30515;SDS011;17297;54.022;10.760;2022-11-18T05:01:36;25.00;;;14.68;;
30515;SDS011;17297;54.022;10.760;2022-11-18T05:04:02;32.35;;;17.00;;
30515;SDS011;17297;54.022;10.760;2022-11-18T05:06:28;28.10;;;13.98;;
30515;SDS011;17297;54.022;10.760;2022-11-18T05:08:56;31.10;;;15.85;;
30515;SDS011;17297;54.022;10.760;2022-11-18T05:11:23;25.00;;;13.93;;
30515;SDS011;17297;54.022;10.760;2022-11-18T05:14:07;26.15;;;14.02;;
30515;SDS011;17297;54.022;10.760;2022-11-18T05:16:32;37.95;;;14.82;;
30515;SDS011;17297;54.022;10.760;2022-11-18T05:18:58;26.33;;;15.23;;
30515;SDS011;17297;54.022;10.760;2022-11-18T05:21:23;24.98;;;14.05;;
30515;SDS011;17297;54.022;10.760;2022-11-18T05:23:49;31.17;;;13.85;;
30515;SDS011;17297;54.022;10.760;2022-11-18T05:26:14;24.95;;;14.70;;
30515;SDS011;17297;54.022;10.760;2022-11-18T05:28:40;25.98;;;14.35;;
30515;SDS011;17297;54.022;10.760;2022-11-18T05:31:06;40.15;;;17.10;;
30515;SDS011;17297;54.022;10.760;2022-11-18T05:33:33;27.60;;;14.52;;
30515;SDS011;17297;54.022;10.760;2022-11-18T05:36:01;25.80;;;14.63;;
30515;SDS011;17297;54.022;10.760;2022-11-18T05:38:27;24.17;;;13.30;;
30515;SDS011;17297;54.022;10.760;2022-11-18T05:40:53;28.63;;;15.52;;
30515;SDS011;17297;54.022;10.760;2022-11-18T05:43:18;26.98;;;14.75;;
30515;SDS011;17297;54.022;10.760;2022-11-18T05:45:43;37.00;;;15.45;;
30515;SDS011;17297;54.022;10.760;2022-11-18T05:48:09;23.85;;;13.73;;
30515;SDS011;17297;54.022;10.760;2022-11-18T05:50:37;29.98;;;14.57;;
30515;SDS011;17297;54.022;10.760;2022-11-18T05:53:02;34.30;;;13.85;;
30515;SDS011;17297;54.022;10.760;2022-11-18T05:58:33;31.77;;;17.35;;
30515;SDS011;17297;54.022;10.760;2022-11-18T06:00:59;32.10;;;16.40;;
30515;SDS011;17297;54.022;10.760;2022-11-18T06:03:28;37.40;;;17.25;;
30515;SDS011;17297;54.022;10.760;2022-11-18T06:05:55;27.65;;;15.75;;
30515;SDS011;17297;54.022;10.760;2022-11-18T06:08:24;31.60;;;16.83;;
30515;SDS011;17297;54.022;10.760;2022-11-18T06:10:54;34.80;;;17.27;;
30515;SDS011;17297;54.022;10.760;2022-11-18T06:13:24;37.10;;;18.63;;
30515;SDS011;17297;54.022;10.760;2022-11-18T06:20:52;37.13;;;17.85;;
30515;SDS011;17297;54.022;10.760;2022-11-18T06:23:20;37.13;;;18.73;;
30515;SDS011;17297;54.022;10.760;2022-11-18T06:25:46;40.25;;;18.85;;
30515;SDS011;17297;54.022;10.760;2022-11-18T06:28:13;35.95;;;18.83;;
30515;SDS011;17297;54.022;10.760;2022-11-18T06:30:40;36.97;;;16.60;;
30515;SDS011;17297;54.022;10.760;2022-11-18T06:33:07;43.22;;;21.33;;
30515;SDS011;17297;54.022;10.760;2022-11-18T06:35:33;40.13;;;20.17;;
30515;SDS011;17297;54.022;10.760;2022-11-18T06:37:58;37.92;;;18.48;;
30515;SDS011;17297;54.022;10.760;2022-11-18T06:40:24;42.20;;;20.10;;
30515;SDS011;17297;54.022;10.760;2022-11-18T06:42:49;36.88;;;18.45;;
30515;SDS011;17297;54.022;10.760;2022-11-18T06:45:33;37.03;;;19.60;;
30515;SDS011;17297;54.022;10.760;2022-11-18T06:47:58;37.35;;;19.50;;
30515;SDS011;17297;54.022;10.760;2022-11-18T06:50:28;34.78;;;16.85;;
30515;SDS011;17297;54.022;10.760;2022-11-18T06:52:54;30.63;;;16.52;;
30515;SDS011;17297;54.022;10.760;2022-11-18T06:55:19;37.35;;;17.05;;
30515;SDS011;17297;54.022;10.760;2022-11-18T06:57:44;32.42;;;15.18;;
30515;SDS011;17297;54.022;10.760;2022-11-18T07:00:10;35.03;;;15.70;;
30515;SDS011;17297;54.022;10.760;2022-11-18T07:02:36;35.22;;;16.67;;
30515;SDS011;17297;54.022;10.760;2022-11-18T07:05:02;30.05;;;15.18;;
30515;SDS011;17297;54.022;10.760;2022-11-18T07:07:28;34.92;;;16.10;;
30515;SDS011;17297;54.022;10.760;2022-11-18T07:09:53;27.98;;;13.40;;
30515;SDS011;17297;54.022;10.760;2022-11-18T07:12:19;25.20;;;13.05;;
30515;SDS011;17297;54.022;10.760;2022-11-18T07:14:44;31.15;;;13.38;;
30515;SDS011;17297;54.022;10.760;2022-11-18T07:17:10;41.35;;;15.20;;
30515;SDS011;17297;54.022;10.760;2022-11-18T07:19:35;27.80;;;13.63;;
30515;SDS011;17297;54.022;10.760;2022-11-18T07:22:00;25.92;;;14.20;;
30515;SDS011;17297;54.022;10.760;2022-11-18T07:24:25;30.65;;;14.55;;
30515;SDS011;17297;54.022;10.760;2022-11-18T07:26:51;25.20;;;12.15;;
30515;SDS011;17297;54.022;10.760;2022-11-18T07:29:18;27.13;;;12.07;;
30515;SDS011;17297;54.022;10.760;2022-11-18T07:31:43;28.23;;;13.68;;
30515;SDS011;17297;54.022;10.760;2022-11-18T07:34:09;29.60;;;12.27;;
30515;SDS011;17297;54.022;10.760;2022-11-18T07:36:34;33.58;;;13.38;;
30515;SDS011;17297;54.022;10.760;2022-11-18T07:39:00;18.80;;;10.52;;
30515;SDS011;17297;54.022;10.760;2022-11-18T07:41:27;27.70;;;12.95;;
30515;SDS011;17297;54.022;10.760;2022-11-18T07:43:54;17.95;;;9.80;;
30515;SDS011;17297;54.022;10.760;2022-11-18T07:46:31;22.77;;;11.43;;
30515;SDS011;17297;54.022;10.760;2022-11-18T07:49:00;16.05;;;10.60;;
30515;SDS011;17297;54.022;10.760;2022-11-18T07:51:27;24.85;;;12.88;;
30515;SDS011;17297;54.022;10.760;2022-11-18T07:53:54;19.25;;;11.00;;
30515;SDS011;17297;54.022;10.760;2022-11-18T07:56:20;24.30;;;11.80;;
30515;SDS011;17297;54.022;10.760;2022-11-18T07:58:46;24.58;;;12.93;;
30515;SDS011;17297;54.022;10.760;2022-11-18T08:01:16;20.88;;;10.82;;
30515;SDS011;17297;54.022;10.760;2022-11-18T08:03:44;16.98;;;10.10;;
30515;SDS011;17297;54.022;10.760;2022-11-18T08:06:11;19.13;;;11.60;;
30515;SDS011;17297;54.022;10.760;2022-11-18T08:08:38;18.35;;;10.05;;
30515;SDS011;17297;54.022;10.760;2022-11-18T08:11:05;21.30;;;9.80;;
30515;SDS011;17297;54.022;10.760;2022-11-18T08:13:32;17.20;;;8.63;;
30515;SDS011;17297;54.022;10.760;2022-11-18T08:15:58;23.15;;;9.90;;
30515;SDS011;17297;54.022;10.760;2022-11-18T08:18:23;19.48;;;10.55;;
30515;SDS011;17297;54.022;10.760;2022-11-18T08:20:49;18.88;;;8.98;;
30515;SDS011;17297;54.022;10.760;2022-11-18T08:23:15;14.73;;;7.70;;
30515;SDS011;17297;54.022;10.760;2022-11-18T08:25:42;13.48;;;6.63;;
30515;SDS011;17297;54.022;10.760;2022-11-18T08:28:08;12.18;;;7.63;;
30515;SDS011;17297;54.022;10.760;2022-11-18T08:30:35;16.17;;;8.82;;
30515;SDS011;17297;54.022;10.760;2022-11-18T08:33:01;19.90;;;9.70;;
30515;SDS011;17297;54.022;10.760;2022-11-18T08:35:27;12.90;;;7.63;;
30515;SDS011;17297;54.022;10.760;2022-11-18T08:37:53;18.23;;;9.77;;
30515;SDS011;17297;54.022;10.760;2022-11-18T08:40:19;13.40;;;6.97;;
30515;SDS011;17297;54.022;10.760;2022-11-18T08:42:44;16.20;;;9.10;;
30515;SDS011;17297;54.022;10.760;2022-11-18T08:45:10;13.93;;;8.43;;
30515;SDS011;17297;54.022;10.760;2022-11-18T08:47:36;14.80;;;8.35;;
30515;SDS011;17297;54.022;10.760;2022-11-18T08:50:05;14.80;;;8.55;;
30515;SDS011;17297;54.022;10.760;2022-11-18T08:52:32;21.30;;;10.10;;
30515;SDS011;17297;54.022;10.760;2022-11-18T08:54:57;20.50;;;8.82;;
30515;SDS011;17297;54.022;10.760;2022-11-18T08:57:23;17.75;;;8.48;;
30515;SDS011;17297;54.022;10.760;2022-11-18T08:59:48;21.58;;;9.75;;
30515;SDS011;17297;54.022;10.760;2022-11-18T09:02:14;15.30;;;7.82;;
30515;SDS011;17297;54.022;10.760;2022-11-18T09:04:41;12.25;;;7.35;;
30515;SDS011;17297;54.022;10.760;2022-11-18T09:07:06;18.63;;;7.80;;
30515;SDS011;17297;54.022;10.760;2022-11-18T09:09:32;18.42;;;7.95;;
30515;SDS011;17297;54.022;10.760;2022-11-18T09:11:57;13.25;;;7.10;;
30515;SDS011;17297;54.022;10.760;2022-11-18T09:14:23;13.18;;;7.22;;
30515;SDS011;17297;54.022;10.760;2022-11-18T09:16:48;15.80;;;7.93;;
30515;SDS011;17297;54.022;10.760;2022-11-18T09:19:14;11.00;;;7.07;;
30515;SDS011;17297;54.022;10.760;2022-11-18T09:21:40;12.38;;;7.30;;
30515;SDS011;17297;54.022;10.760;2022-11-18T09:24:06;11.35;;;7.15;;
30515;SDS011;17297;54.022;10.760;2022-11-18T09:26:32;10.18;;;6.85;;
30515;SDS011;17297;54.022;10.760;2022-11-18T09:28:57;13.60;;;6.57;;
30515;SDS011;17297;54.022;10.760;2022-11-18T09:31:23;10.73;;;7.18;;
30515;SDS011;17297;54.022;10.760;2022-11-18T09:33:48;14.52;;;7.20;;
30515;SDS011;17297;54.022;10.760;2022-11-18T09:36:21;9.95;;;6.43;;
30515;SDS011;17297;54.022;10.760;2022-11-18T09:38:47;12.55;;;7.18;;
30515;SDS011;17297;54.022;10.760;2022-11-18T09:41:19;20.17;;;7.22;;
30515;SDS011;17297;54.022;10.760;2022-11-18T09:44:04;22.70;;;8.60;;
30515;SDS011;17297;54.022;10.760;2022-11-18T09:49:31;21.98;;;8.85;;
30515;SDS011;17297;54.022;10.760;2022-11-18T09:54:36;11.50;;;6.82;;
30515;SDS011;17297;54.022;10.760;2022-11-18T09:57:07;10.73;;;5.00;;
30515;SDS011;17297;54.022;10.760;2022-11-18T09:59:43;15.18;;;9.02;;
30515;SDS011;17297;54.022;10.760;2022-11-18T10:04:37;9.25;;;5.35;;
30515;SDS011;17297;54.022;10.760;2022-11-18T10:07:04;10.10;;;4.80;;
30515;SDS011;17297;54.022;10.760;2022-11-18T10:09:40;13.15;;;5.80;;
30515;SDS011;17297;54.022;10.760;2022-11-18T10:12:13;20.70;;;6.63;;
30515;SDS011;17297;54.022;10.760;2022-11-18T10:15:00;10.00;;;4.57;;
30515;SDS011;17297;54.022;10.760;2022-11-18T10:25:59;9.50;;;4.47;;
30515;SDS011;17297;54.022;10.760;2022-11-18T10:28:26;15.05;;;5.50;;
30515;SDS011;17297;54.022;10.760;2022-11-18T10:31:03;9.15;;;4.18;;
30515;SDS011;17297;54.022;10.760;2022-11-18T10:33:35;12.50;;;5.53;;
30515;SDS011;17297;54.022;10.760;2022-11-18T10:38:42;12.77;;;4.53;;
30515;SDS011;17297;54.022;10.760;2022-11-18T10:41:09;9.55;;;4.95;;
30515;SDS011;17297;54.022;10.760;2022-11-18T10:46:22;13.38;;;6.30;;
30515;SDS011;17297;54.022;10.760;2022-11-18T10:51:41;15.20;;;5.82;;
30515;SDS011;17297;54.022;10.760;2022-11-18T10:54:13;22.08;;;6.97;;
30515;SDS011;17297;54.022;10.760;2022-11-18T10:56:50;21.45;;;7.40;;
30515;SDS011;17297;54.022;10.760;2022-11-18T10:59:22;8.63;;;4.07;;
30515;SDS011;17297;54.022;10.760;2022-11-18T11:01:57;7.03;;;3.55;;
30515;SDS011;17297;54.022;10.760;2022-11-18T11:04:24;8.85;;;4.32;;
30515;SDS011;17297;54.022;10.760;2022-11-18T11:06:51;9.88;;;4.10;;
30515;SDS011;17297;54.022;10.760;2022-11-18T11:17:20;9.48;;;4.05;;
30515;SDS011;17297;54.022;10.760;2022-11-18T11:20:00;6.00;;;2.80;;
30515;SDS011;17297;54.022;10.760;2022-11-18T11:22:43;5.88;;;3.00;;
30515;SDS011;17297;54.022;10.760;2022-11-18T11:25:14;6.00;;;3.42;;
30515;SDS011;17297;54.022;10.760;2022-11-18T11:27:42;9.52;;;3.03;;
30515;SDS011;17297;54.022;10.760;2022-11-18T11:30:28;8.38;;;3.88;;
30515;SDS011;17297;54.022;10.760;2022-11-18T11:35:49;6.80;;;3.47;;
30515;SDS011;17297;54.022;10.760;2022-11-18T11:38:41;7.00;;;3.13;;
30515;SDS011;17297;54.022;10.760;2022-11-18T11:41:26;8.20;;;3.35;;
30515;SDS011;17297;54.022;10.760;2022-11-18T11:44:00;8.57;;;2.33;;
30515;SDS011;17297;54.022;10.760;2022-11-18T11:52:24;5.50;;;2.50;;
30515;SDS011;17297;54.022;10.760;2022-11-18T12:00:43;21.23;;;4.15;;
30515;SDS011;17297;54.022;10.760;2022-11-18T12:03:35;6.32;;;2.67;;
30515;SDS011;17297;54.022;10.760;2022-11-18T12:06:08;21.98;;;3.33;;
30515;SDS011;17297;54.022;10.760;2022-11-18T12:08:35;8.07;;;4.03;;
30515;SDS011;17297;54.022;10.760;2022-11-18T12:11:09;7.78;;;3.00;;
30515;SDS011;17297;54.022;10.760;2022-11-18T12:17:04;6.22;;;2.33;;
30515;SDS011;17297;54.022;10.760;2022-11-18T12:19:37;6.20;;;2.72;;
30515;SDS011;17297;54.022;10.760;2022-11-18T12:22:03;7.50;;;3.08;;
30515;SDS011;17297;54.022;10.760;2022-11-18T12:29:54;9.00;;;3.00;;
30515;SDS011;17297;54.022;10.760;2022-11-18T12:34:54;6.25;;;2.72;;
30515;SDS011;17297;54.022;10.760;2022-11-18T12:39:56;5.95;;;2.50;;
30515;SDS011;17297;54.022;10.760;2022-11-18T12:42:36;5.78;;;2.40;;
30515;SDS011;17297;54.022;10.760;2022-11-18T12:45:37;11.13;;;3.13;;
30515;SDS011;17297;54.022;10.760;2022-11-18T12:50:50;5.55;;;2.10;;
30515;SDS011;17297;54.022;10.760;2022-11-18T12:58:55;7.65;;;2.28;;
30515;SDS011;17297;54.022;10.760;2022-11-18T13:01:22;6.00;;;2.17;;
30515;SDS011;17297;54.022;10.760;2022-11-18T13:03:49;8.80;;;2.53;;
30515;SDS011;17297;54.022;10.760;2022-11-18T13:06:20;7.80;;;3.97;;
30515;SDS011;17297;54.022;10.760;2022-11-18T13:08:52;5.45;;;2.25;;
30515;SDS011;17297;54.022;10.760;2022-11-18T13:11:21;5.90;;;2.22;;
30515;SDS011;17297;54.022;10.760;2022-11-18T13:14:11;7.03;;;2.45;;
30515;SDS011;17297;54.022;10.760;2022-11-18T13:17:01;8.40;;;3.75;;
30515;SDS011;17297;54.022;10.760;2022-11-18T13:19:55;9.18;;;2.90;;
30515;SDS011;17297;54.022;10.760;2022-11-18T13:22:21;6.72;;;2.85;;
30515;SDS011;17297;54.022;10.760;2022-11-18T13:25:19;4.30;;;2.10;;
30515;SDS011;17297;54.022;10.760;2022-11-18T13:27:51;7.20;;;2.65;;
30515;SDS011;17297;54.022;10.760;2022-11-18T13:30:26;7.65;;;3.13;;
30515;SDS011;17297;54.022;10.760;2022-11-18T13:32:54;4.00;;;2.47;;
30515;SDS011;17297;54.022;10.760;2022-11-18T13:35:23;3.80;;;1.95;;
30515;SDS011;17297;54.022;10.760;2022-11-18T13:37:56;4.30;;;1.88;;
30515;SDS011;17297;54.022;10.760;2022-11-18T13:40:26;5.88;;;2.60;;
30515;SDS011;17297;54.022;10.760;2022-11-18T13:42:54;7.72;;;2.83;;
30515;SDS011;17297;54.022;10.760;2022-11-18T13:45:20;7.45;;;2.08;;
30515;SDS011;17297;54.022;10.760;2022-11-18T13:47:50;8.57;;;3.47;;
30515;SDS011;17297;54.022;10.760;2022-11-18T13:53:04;9.35;;;3.03;;
30515;SDS011;17297;54.022;10.760;2022-11-18T13:55:39;5.15;;;2.35;;
30515;SDS011;17297;54.022;10.760;2022-11-18T14:00:40;5.22;;;1.90;;
30515;SDS011;17297;54.022;10.760;2022-11-18T14:03:17;5.18;;;1.60;;
30515;SDS011;17297;54.022;10.760;2022-11-18T14:05:53;5.03;;;2.70;;
30515;SDS011;17297;54.022;10.760;2022-11-18T14:08:22;4.65;;;2.55;;
30515;SDS011;17297;54.022;10.760;2022-11-18T14:10:52;6.70;;;2.50;;
30515;SDS011;17297;54.022;10.760;2022-11-18T14:13:25;4.90;;;2.03;;
30515;SDS011;17297;54.022;10.760;2022-11-18T14:15:53;6.57;;;2.55;;
30515;SDS011;17297;54.022;10.760;2022-11-18T14:18:23;5.38;;;2.40;;
30515;SDS011;17297;54.022;10.760;2022-11-18T14:20:53;11.77;;;2.55;;
30515;SDS011;17297;54.022;10.760;2022-11-18T14:23:21;4.68;;;1.95;;
30515;SDS011;17297;54.022;10.760;2022-11-18T14:26:00;10.07;;;2.72;;
30515;SDS011;17297;54.022;10.760;2022-11-18T14:28:29;7.38;;;2.40;;
30515;SDS011;17297;54.022;10.760;2022-11-18T14:31:02;3.88;;;1.77;;
30515;SDS011;17297;54.022;10.760;2022-11-18T14:33:31;4.22;;;2.33;;
30515;SDS011;17297;54.022;10.760;2022-11-18T14:36:02;7.20;;;2.85;;
30515;SDS011;17297;54.022;10.760;2022-11-18T14:38:44;5.70;;;2.20;;
30515;SDS011;17297;54.022;10.760;2022-11-18T14:41:12;7.03;;;2.10;;
30515;SDS011;17297;54.022;10.760;2022-11-18T14:44:02;4.63;;;1.92;;
30515;SDS011;17297;54.022;10.760;2022-11-18T14:46:27;5.50;;;2.50;;
30515;SDS011;17297;54.022;10.760;2022-11-18T14:48:53;6.72;;;2.90;;
30515;SDS011;17297;54.022;10.760;2022-11-18T14:51:18;9.23;;;2.45;;
30515;SDS011;17297;54.022;10.760;2022-11-18T14:53:43;4.45;;;2.53;;
30515;SDS011;17297;54.022;10.760;2022-11-18T14:56:16;6.95;;;2.53;;
30515;SDS011;17297;54.022;10.760;2022-11-18T14:58:46;6.03;;;2.85;;
30515;SDS011;17297;54.022;10.760;2022-11-18T15:01:12;9.65;;;3.03;;
30515;SDS011;17297;54.022;10.760;2022-11-18T15:03:38;4.63;;;2.33;;
30515;SDS011;17297;54.022;10.760;2022-11-18T15:06:04;4.68;;;3.38;;
30515;SDS011;17297;54.022;10.760;2022-11-18T15:08:35;6.72;;;2.08;;
30515;SDS011;17297;54.022;10.760;2022-11-18T15:11:01;4.97;;;2.08;;
30515;SDS011;17297;54.022;10.760;2022-11-18T15:13:26;3.28;;;1.75;;
30515;SDS011;17297;54.022;10.760;2022-11-18T15:15:51;8.00;;;2.60;;
30515;SDS011;17297;54.022;10.760;2022-11-18T15:18:17;4.13;;;1.80;;
30515;SDS011;17297;54.022;10.760;2022-11-18T15:20:42;2.78;;;1.50;;
30515;SDS011;17297;54.022;10.760;2022-11-18T15:23:08;3.67;;;2.00;;
30515;SDS011;17297;54.022;10.760;2022-11-18T15:25:33;8.60;;;3.22;;
30515;SDS011;17297;54.022;10.760;2022-11-18T15:27:58;5.20;;;1.90;;
30515;SDS011;17297;54.022;10.760;2022-11-18T15:30:24;5.00;;;3.15;;
30515;SDS011;17297;54.022;10.760;2022-11-18T15:32:49;5.18;;;1.75;;
30515;SDS011;17297;54.022;10.760;2022-11-18T15:35:14;4.97;;;1.88;;
30515;SDS011;17297;54.022;10.760;2022-11-18T15:37:40;5.45;;;2.05;;
30515;SDS011;17297;54.022;10.760;2022-11-18T15:40:05;8.00;;;2.80;;
30515;SDS011;17297;54.022;10.760;2022-11-18T15:42:31;4.25;;;1.80;;
30515;SDS011;17297;54.022;10.760;2022-11-18T15:44:56;8.70;;;2.10;;
30515;SDS011;17297;54.022;10.760;2022-11-18T15:47:22;3.03;;;1.77;;
30515;SDS011;17297;54.022;10.760;2022-11-18T15:49:47;4.55;;;2.17;;
30515;SDS011;17297;54.022;10.760;2022-11-18T15:52:12;3.78;;;1.70;;
30515;SDS011;17297;54.022;10.760;2022-11-18T15:54:37;6.97;;;2.72;;
30515;SDS011;17297;54.022;10.760;2022-11-18T15:57:03;5.13;;;1.65;;
30515;SDS011;17297;54.022;10.760;2022-11-18T15:59:29;5.60;;;2.38;;
30515;SDS011;17297;54.022;10.760;2022-11-18T16:01:54;5.00;;;2.35;;
30515;SDS011;17297;54.022;10.760;2022-11-18T16:04:20;5.20;;;1.92;;
30515;SDS011;17297;54.022;10.760;2022-11-18T16:06:46;5.13;;;2.10;;
30515;SDS011;17297;54.022;10.760;2022-11-18T16:09:12;3.80;;;2.10;;
30515;SDS011;17297;54.022;10.760;2022-11-18T16:11:39;4.78;;;1.80;;
30515;SDS011;17297;54.022;10.760;2022-11-18T16:14:23;4.78;;;1.95;;